createdAt,value
2018-09-21T00:00:42.984Z,22.37
2018-09-21T00:01:43.073Z,22.38
2018-09-21T00:02:43.033Z,22.34
2018-09-21T00:03:43.077Z,22.40
2018-09-21T00:04:43.052Z,22.38
2018-09-21T00:05:43.103Z,22.36
2018-09-21T00:06:43.046Z,22.38
2018-09-21T00:07:43.081Z,22.38
2018-09-21T00:08:43.283Z,22.36
2018-09-21T00:09:43.098Z,22.37
2018-09-21T00:10:43.148Z,22.40
2018-09-21T00:11:43.111Z,22.37
2018-09-21T00:12:43.180Z,22.34
2018-09-21T00:13:43.145Z,22.33
2018-09-21T00:14:43.184Z,22.31
2018-09-21T00:15:43.205Z,22.19
2018-09-21T00:16:43.175Z,22.25
2018-09-21T00:17:43.306Z,22.26
2018-09-21T00:18:43.183Z,22.23
2018-09-21T00:19:43.348Z,22.26
2018-09-21T00:20:43.223Z,22.34
2018-09-21T00:21:43.213Z,22.21
2018-09-21T00:22:43.251Z,22.22
2018-09-21T00:23:43.281Z,22.21
2018-09-21T00:24:43.294Z,22.21
2018-09-21T00:25:43.306Z,22.21
2018-09-21T00:26:43.321Z,22.21
2018-09-21T00:27:43.298Z,22.22
2018-09-21T00:28:43.305Z,22.28
2018-09-21T00:29:43.369Z,22.23
2018-09-21T00:30:43.342Z,22.22
2018-09-21T00:31:43.414Z,22.31
2018-09-21T00:32:43.362Z,22.23
2018-09-21T00:33:43.375Z,22.31
2018-09-21T00:34:43.413Z,22.25
2018-09-21T00:35:43.373Z,22.25
2018-09-21T00:36:43.454Z,22.26
2018-09-21T00:37:43.431Z,22.18
2018-09-21T00:38:43.432Z,22.28
2018-09-21T00:39:43.495Z,22.16
2018-09-21T00:40:43.449Z,22.18
2018-09-21T00:41:43.461Z,22.15
2018-09-21T00:42:43.494Z,22.14
2018-09-21T00:43:43.487Z,22.16
2018-09-21T00:44:43.490Z,22.18
2018-09-21T00:45:43.488Z,22.14
2018-09-21T00:46:43.543Z,22.18
2018-09-21T00:47:43.557Z,22.16
2018-09-21T00:48:43.545Z,22.14
2018-09-21T00:49:43.573Z,22.21
2018-09-21T00:50:43.644Z,22.07
2018-09-21T00:51:43.559Z,22.10
2018-09-21T00:52:43.603Z,22.16
2018-09-21T00:53:43.667Z,22.06
2018-09-21T00:54:43.619Z,22.08
2018-09-21T00:55:43.621Z,22.15
2018-09-21T00:56:43.672Z,22.12
2018-09-21T00:57:43.640Z,22.10
2018-09-21T00:58:43.661Z,22.07
2018-09-21T00:59:43.731Z,22.07
2018-09-21T01:00:43.685Z,22.10
2018-09-21T01:01:43.692Z,22.10
2018-09-21T01:02:43.697Z,22.12
2018-09-21T01:03:43.698Z,22.10
2018-09-21T01:04:43.731Z,22.08
2018-09-21T01:05:43.725Z,22.10
2018-09-21T01:06:43.779Z,22.10
2018-09-21T01:07:43.759Z,22.07
2018-09-21T01:08:43.751Z,22.10
2018-09-21T01:09:43.795Z,22.04
2018-09-21T01:10:43.809Z,22.01
2018-09-21T01:11:43.817Z,22.03
2018-09-21T01:12:43.822Z,21.99
2018-09-21T01:13:43.808Z,22.03
2018-09-21T01:14:43.827Z,21.96
2018-09-21T01:15:43.845Z,21.94
2018-09-21T01:16:43.895Z,22.03
2018-09-21T01:17:43.873Z,21.94
2018-09-21T01:18:43.924Z,22.03
2018-09-21T01:19:43.888Z,22.06
2018-09-21T01:20:43.903Z,21.99
2018-09-21T01:21:43.923Z,21.96
2018-09-21T01:22:43.949Z,21.92
2018-09-21T01:23:43.969Z,21.92
2018-09-21T01:24:43.974Z,21.89
2018-09-21T01:25:43.959Z,21.92
2018-09-21T01:26:44.031Z,21.94
2018-09-21T01:27:43.990Z,21.94
2018-09-21T01:28:44.000Z,21.89
2018-09-21T01:29:44.052Z,21.91
2018-09-21T01:30:44.054Z,21.84
2018-09-21T01:31:44.017Z,21.88
2018-09-21T01:32:44.044Z,21.83
2018-09-21T01:33:44.069Z,21.84
2018-09-21T01:34:44.105Z,21.81
2018-09-21T01:35:44.055Z,21.83
2018-09-21T01:36:44.121Z,21.83
2018-09-21T01:37:44.106Z,21.84
2018-09-21T01:38:44.115Z,21.88
2018-09-21T01:39:44.126Z,21.84
2018-09-21T01:40:44.148Z,21.84
2018-09-21T01:41:44.182Z,21.75
2018-09-21T01:42:44.159Z,21.78
2018-09-21T01:43:44.167Z,21.81
2018-09-21T01:44:44.191Z,21.84
2018-09-21T01:45:44.182Z,21.77
2018-09-21T01:46:44.203Z,21.77
2018-09-21T01:47:44.200Z,21.69
2018-09-21T01:48:44.291Z,21.78
2018-09-21T01:49:44.212Z,21.77
2018-09-21T01:50:44.244Z,21.68
2018-09-21T01:51:44.270Z,21.75
2018-09-21T01:52:44.313Z,21.63
2018-09-21T01:53:44.314Z,21.74
2018-09-21T01:54:44.303Z,21.70
2018-09-21T01:55:44.334Z,21.74
2018-09-21T01:56:44.326Z,21.69
2018-09-21T01:57:44.329Z,21.66
2018-09-21T01:58:44.357Z,21.68
2018-09-21T01:59:44.362Z,21.69
2018-09-21T02:00:44.432Z,21.63
2018-09-21T02:01:44.371Z,21.65
2018-09-21T02:02:44.400Z,21.60
2018-09-21T02:03:44.388Z,21.62
2018-09-21T02:04:44.426Z,21.60
2018-09-21T02:05:44.420Z,21.66
2018-09-21T02:06:44.436Z,21.62
2018-09-21T02:07:44.443Z,21.54
2018-09-21T02:08:44.544Z,21.65
2018-09-21T02:09:44.488Z,21.51
2018-09-21T02:10:44.506Z,21.56
2018-09-21T02:11:44.453Z,21.60
2018-09-21T02:12:44.618Z,21.65
2018-09-21T02:13:44.519Z,21.56
2018-09-21T02:14:44.690Z,21.56
2018-09-21T02:15:44.532Z,21.63
2018-09-21T02:16:44.529Z,21.66
2018-09-21T02:17:44.598Z,21.53
2018-09-21T02:18:44.548Z,21.51
2018-09-21T02:19:44.551Z,21.59
2018-09-21T02:20:44.629Z,21.51
2018-09-21T02:21:44.570Z,21.53
2018-09-21T02:22:44.642Z,21.60
2018-09-21T02:23:44.613Z,21.63
2018-09-21T02:24:44.662Z,21.62
2018-09-21T02:25:44.639Z,21.54
2018-09-21T02:26:44.646Z,21.58
2018-09-21T02:27:44.662Z,21.60
2018-09-21T02:28:44.642Z,21.50
2018-09-21T02:29:44.687Z,21.53
2018-09-21T02:30:44.689Z,21.48
2018-09-21T02:31:44.696Z,21.48
2018-09-21T02:32:44.711Z,21.51
2018-09-21T02:33:44.754Z,21.56
2018-09-21T02:34:44.710Z,21.50
2018-09-21T02:35:44.735Z,21.50
2018-09-21T02:36:44.789Z,21.53
2018-09-21T02:37:44.744Z,21.53
2018-09-21T02:38:44.754Z,21.51
2018-09-21T02:39:44.961Z,21.54
2018-09-21T02:40:44.813Z,21.51
2018-09-21T02:41:44.783Z,21.43
2018-09-21T02:42:44.833Z,21.45
2018-09-21T02:43:44.813Z,21.50
2018-09-21T02:44:44.876Z,21.48
2018-09-21T02:45:44.851Z,21.44
2018-09-21T02:46:44.857Z,21.47
2018-09-21T02:47:44.892Z,21.53
2018-09-21T02:48:44.910Z,21.50
2018-09-21T02:49:44.916Z,21.45
2018-09-21T02:50:44.952Z,21.53
2018-09-21T02:51:44.924Z,21.44
2018-09-21T02:52:44.926Z,21.51
2018-09-21T02:53:44.954Z,21.53
2018-09-21T02:54:44.952Z,21.50
2018-09-21T02:55:44.975Z,21.47
2018-09-21T02:56:44.981Z,21.43
2018-09-21T02:57:45.073Z,21.44
2018-09-21T02:58:45.049Z,21.44
2018-09-21T02:59:44.994Z,21.47
2018-09-21T03:00:45.127Z,21.43
2018-09-21T03:01:45.040Z,21.43
2018-09-21T03:02:45.060Z,21.45
2018-09-21T03:03:45.073Z,21.41
2018-09-21T03:04:45.103Z,21.47
2018-09-21T03:05:45.078Z,21.43
2018-09-21T03:06:45.087Z,21.44
2018-09-21T03:07:45.110Z,21.44
2018-09-21T03:08:45.124Z,21.48
2018-09-21T03:09:45.108Z,21.50
2018-09-21T03:10:45.133Z,21.47
2018-09-21T03:11:45.262Z,21.45
2018-09-21T03:12:45.260Z,21.41
2018-09-21T03:13:45.163Z,21.47
2018-09-21T03:14:45.186Z,21.43
2018-09-21T03:15:45.187Z,21.40
2018-09-21T03:16:45.294Z,21.47
2018-09-21T03:17:45.223Z,21.43
2018-09-21T03:18:45.232Z,21.41
2018-09-21T03:19:45.216Z,21.40
2018-09-21T03:20:45.237Z,21.44
2018-09-21T03:21:45.277Z,21.43
2018-09-21T03:22:45.273Z,21.45
2018-09-21T03:23:46.165Z,21.41
2018-09-21T03:24:45.337Z,21.45
2018-09-21T03:25:45.319Z,21.38
2018-09-21T03:26:45.353Z,21.33
2018-09-21T03:27:45.294Z,21.35
2018-09-21T03:28:45.369Z,21.44
2018-09-21T03:29:45.381Z,21.35
2018-09-21T03:30:45.403Z,21.38
2018-09-21T03:31:45.407Z,21.41
2018-09-21T03:32:45.359Z,21.33
2018-09-21T03:33:45.375Z,21.29
2018-09-21T03:34:45.435Z,21.33
2018-09-21T03:35:45.424Z,21.29
2018-09-21T03:36:45.422Z,21.33
2018-09-21T03:37:45.475Z,21.32
2018-09-21T03:38:45.513Z,21.30
2018-09-21T03:39:45.461Z,21.26
2018-09-21T03:40:45.500Z,21.25
2018-09-21T03:41:45.502Z,21.26
2018-09-21T03:42:45.481Z,21.37
2018-09-21T03:43:45.469Z,21.35
2018-09-21T03:44:45.491Z,21.37
2018-09-21T03:45:45.501Z,21.33
2018-09-21T03:46:45.541Z,21.37
2018-09-21T03:47:45.523Z,21.28
2018-09-21T03:48:45.570Z,21.33
2018-09-21T03:49:45.553Z,21.33
2018-09-21T03:50:45.566Z,21.37
2018-09-21T03:51:45.657Z,21.33
2018-09-21T03:52:45.614Z,21.35
2018-09-21T03:53:45.610Z,21.30
2018-09-21T03:54:45.647Z,21.38
2018-09-21T03:55:45.618Z,21.35
2018-09-21T03:56:45.667Z,21.33
2018-09-21T03:57:45.681Z,21.38
2018-09-21T03:58:45.679Z,21.33
2018-09-21T03:59:45.706Z,21.30
2018-09-21T04:00:45.709Z,21.32
2018-09-21T04:01:45.710Z,21.33
2018-09-21T04:02:45.700Z,21.28
2018-09-21T04:03:45.698Z,21.25
2018-09-21T04:04:45.732Z,21.30
2018-09-21T04:05:45.762Z,21.29
2018-09-21T04:06:45.779Z,21.26
2018-09-21T04:07:45.780Z,21.30
2018-09-21T04:08:45.757Z,21.28
2018-09-21T04:09:45.768Z,21.33
2018-09-21T04:10:45.825Z,21.32
2018-09-21T04:11:45.807Z,21.30
2018-09-21T04:12:45.844Z,21.25
2018-09-21T04:13:45.840Z,21.33
2018-09-21T04:14:45.845Z,21.30
2018-09-21T04:15:45.899Z,21.35
2018-09-21T04:16:45.843Z,21.28
2018-09-21T04:17:45.909Z,21.33
2018-09-21T04:18:45.879Z,21.32
2018-09-21T04:19:45.889Z,21.35
2018-09-21T04:20:45.893Z,21.20
2018-09-21T04:21:45.948Z,21.33
2018-09-21T04:22:45.920Z,21.35
2018-09-21T04:23:45.930Z,21.29
2018-09-21T04:24:45.925Z,21.33
2018-09-21T04:25:45.988Z,21.35
2018-09-21T04:26:45.993Z,21.29
2018-09-21T04:27:45.975Z,21.35
2018-09-21T04:28:46.011Z,21.29
2018-09-21T04:29:46.056Z,21.29
2018-09-21T04:30:46.005Z,21.30
2018-09-21T04:31:46.019Z,21.23
2018-09-21T04:32:46.069Z,21.30
2018-09-21T04:33:46.692Z,21.22
2018-09-21T04:34:46.078Z,21.23
2018-09-21T04:35:46.068Z,21.29
2018-09-21T04:36:46.081Z,21.32
2018-09-21T04:37:46.108Z,21.20
2018-09-21T04:38:46.115Z,21.30
2018-09-21T04:39:46.140Z,21.30
2018-09-21T04:40:46.112Z,21.28
2018-09-21T04:41:46.215Z,21.22
2018-09-21T04:42:46.146Z,21.28
2018-09-21T04:43:46.150Z,21.20
2018-09-21T04:44:46.192Z,21.28
2018-09-21T04:45:46.248Z,21.17
2018-09-21T04:46:46.206Z,21.23
2018-09-21T04:47:46.199Z,21.23
2018-09-21T04:48:46.217Z,21.32
2018-09-21T04:49:46.232Z,21.23
2018-09-21T04:50:46.220Z,21.30
2018-09-21T04:51:46.251Z,21.33
2018-09-21T04:52:46.293Z,21.23
2018-09-21T04:53:46.429Z,21.28
2018-09-21T04:54:46.293Z,21.33
2018-09-21T04:55:46.289Z,21.29
2018-09-21T04:56:46.287Z,21.25
2018-09-21T04:57:46.326Z,21.33
2018-09-21T04:58:46.317Z,21.26
2018-09-21T04:59:46.334Z,21.26
2018-09-21T05:00:46.342Z,21.29
2018-09-21T05:01:46.338Z,21.29
2018-09-21T05:02:46.348Z,21.32
2018-09-21T05:03:46.355Z,21.29
2018-09-21T05:04:46.413Z,21.33
2018-09-21T05:05:46.407Z,21.32
2018-09-21T05:06:46.394Z,21.30
2018-09-21T05:07:46.428Z,21.20
2018-09-21T05:08:46.414Z,21.20
2018-09-21T05:09:46.442Z,21.35
2018-09-21T05:10:46.439Z,21.35
2018-09-21T05:11:46.469Z,21.32
2018-09-21T05:12:46.512Z,21.35
2018-09-21T05:13:46.676Z,21.35
2018-09-21T05:14:46.487Z,21.37
2018-09-21T05:15:46.540Z,21.35
2018-09-21T05:16:46.541Z,21.33
2018-09-21T05:17:46.514Z,21.32
2018-09-21T05:18:46.557Z,21.37
2018-09-21T05:19:46.603Z,21.35
2018-09-21T05:20:46.802Z,21.40
2018-09-21T05:21:46.608Z,21.35
2018-09-21T05:22:46.577Z,21.44
2018-09-21T05:23:46.605Z,21.41
2018-09-21T05:24:46.601Z,21.44
2018-09-21T05:25:46.625Z,21.51
2018-09-21T05:26:46.658Z,21.54
2018-09-21T05:27:46.631Z,21.50
2018-09-21T05:28:46.652Z,21.48
2018-09-21T05:29:46.702Z,21.59
2018-09-21T05:30:46.669Z,21.62
2018-09-21T05:31:46.704Z,21.60
2018-09-21T05:32:46.694Z,21.68
2018-09-21T05:33:46.793Z,21.66
2018-09-21T05:34:46.900Z,21.68
2018-09-21T05:35:46.735Z,21.74
2018-09-21T05:36:46.744Z,21.74
2018-09-21T05:37:46.750Z,21.81
2018-09-21T05:38:46.805Z,21.81
2018-09-21T05:39:46.769Z,21.91
2018-09-21T05:40:46.766Z,21.89
2018-09-21T05:41:46.815Z,21.96
2018-09-21T05:42:46.813Z,21.99
2018-09-21T05:43:46.846Z,22.04
2018-09-21T05:44:46.876Z,22.06
2018-09-21T05:45:46.867Z,22.07
2018-09-21T05:46:46.844Z,22.07
2018-09-21T05:47:46.875Z,22.08
2018-09-21T05:48:46.889Z,22.18
2018-09-21T05:49:46.974Z,22.19
2018-09-21T05:50:46.941Z,22.15
2018-09-21T05:51:46.951Z,22.21
2018-09-21T05:52:46.955Z,22.16
2018-09-21T05:53:46.963Z,22.23
2018-09-21T05:54:46.960Z,22.18
2018-09-21T05:55:46.959Z,22.18
2018-09-21T05:56:46.989Z,22.23
2018-09-21T05:57:46.987Z,22.23
2018-09-21T05:58:47.001Z,22.23
2018-09-21T05:59:47.054Z,22.30
2018-09-21T06:00:47.048Z,22.25
2018-09-21T06:01:47.066Z,22.28
2018-09-21T06:02:47.074Z,22.31
2018-09-21T06:03:47.086Z,22.34
2018-09-21T06:04:47.071Z,22.38
2018-09-21T06:05:47.094Z,22.43
2018-09-21T06:06:47.100Z,22.47
2018-09-21T06:07:47.168Z,22.47
2018-09-21T06:08:47.113Z,22.52
2018-09-21T06:09:47.232Z,22.49
2018-09-21T06:10:47.124Z,22.46
2018-09-21T06:11:47.181Z,22.58
2018-09-21T06:12:47.184Z,22.67
2018-09-21T06:13:47.250Z,22.62
2018-09-21T06:14:47.193Z,22.65
2018-09-21T06:15:47.212Z,22.71
2018-09-21T06:16:47.353Z,22.76
2018-09-21T06:17:47.213Z,22.74
2018-09-21T06:18:47.243Z,22.80
2018-09-21T06:19:47.249Z,22.78
2018-09-21T06:20:47.367Z,22.81
2018-09-21T06:21:47.299Z,22.76
2018-09-21T06:22:47.333Z,22.77
2018-09-21T06:23:47.434Z,22.78
2018-09-21T06:24:47.320Z,22.86
2018-09-21T06:25:47.367Z,22.93
2018-09-21T06:26:47.335Z,22.86
2018-09-21T06:27:47.376Z,22.86
2018-09-21T06:28:47.383Z,22.95
2018-09-21T06:29:47.393Z,22.96
2018-09-21T06:30:47.418Z,22.96
2018-09-21T06:31:47.385Z,23.02
2018-09-21T06:32:47.412Z,23.02
2018-09-21T06:33:47.468Z,23.07
2018-09-21T06:34:47.497Z,23.06
2018-09-21T06:35:47.459Z,23.08
2018-09-21T06:36:47.477Z,23.20
2018-09-21T06:37:47.865Z,23.11
2018-09-21T06:38:47.710Z,23.25
2018-09-21T06:39:47.494Z,23.28
2018-09-21T06:40:47.535Z,23.28
2018-09-21T06:41:47.525Z,23.40
2018-09-21T06:42:47.532Z,23.33
2018-09-21T06:43:47.631Z,23.34
2018-09-21T06:44:47.549Z,23.40
2018-09-21T06:45:47.556Z,23.42
2018-09-21T06:46:47.591Z,23.39
2018-09-21T06:47:47.628Z,23.52
2018-09-21T06:48:47.649Z,23.51
2018-09-21T06:49:47.618Z,23.54
2018-09-21T06:50:47.642Z,23.56
2018-09-21T06:51:47.640Z,23.62
2018-09-21T06:52:47.839Z,23.59
2018-09-21T06:53:47.712Z,23.67
2018-09-21T06:54:47.697Z,23.73
2018-09-21T06:55:47.718Z,23.76
2018-09-21T06:56:47.724Z,23.82
2018-09-21T06:57:47.747Z,23.76
2018-09-21T06:58:49.986Z,23.77
2018-09-21T06:59:47.752Z,23.89
2018-09-21T07:00:47.762Z,23.85
2018-09-21T07:01:47.850Z,23.89
2018-09-21T07:02:47.811Z,24.03
2018-09-21T07:03:47.810Z,24.03
2018-09-21T07:04:47.826Z,24.04
2018-09-21T07:05:47.843Z,24.06
2018-09-21T07:06:47.849Z,24.01
2018-09-21T07:07:47.871Z,24.03
2018-09-21T07:08:47.894Z,24.06
2018-09-21T07:09:47.957Z,24.04
2018-09-21T07:10:47.873Z,24.13
2018-09-21T07:11:47.897Z,24.16
2018-09-21T07:12:48.036Z,24.21
2018-09-21T07:13:47.938Z,24.16
2018-09-21T07:14:47.958Z,24.14
2018-09-21T07:15:47.986Z,24.26
2018-09-21T07:16:47.970Z,24.21
2018-09-21T07:17:48.219Z,24.29
2018-09-21T07:18:47.985Z,24.29
2018-09-21T07:19:47.996Z,24.38
2018-09-21T07:20:48.035Z,24.41
2018-09-21T07:21:48.013Z,24.40
2018-09-21T07:22:48.049Z,24.46
2018-09-21T07:23:48.249Z,24.43
2018-09-21T07:24:48.066Z,24.41
2018-09-21T07:25:48.066Z,24.48
2018-09-21T07:26:48.200Z,24.50
2018-09-21T07:27:48.235Z,24.47
2018-09-21T07:28:48.298Z,24.48
2018-09-21T07:29:48.157Z,24.43
2018-09-21T07:30:48.353Z,24.51
2018-09-21T07:31:48.158Z,24.58
2018-09-21T07:32:48.181Z,24.47
2018-09-21T07:33:48.293Z,24.47
2018-09-21T07:34:48.186Z,24.59
2018-09-21T07:35:48.385Z,24.62
2018-09-21T07:36:48.497Z,24.50
2018-09-21T07:37:48.409Z,24.62
2018-09-21T07:38:48.315Z,24.56
2018-09-21T07:39:48.325Z,24.62
2018-09-21T07:40:48.364Z,24.66
2018-09-21T07:41:48.282Z,24.51
2018-09-21T07:42:48.335Z,24.53
2018-09-21T07:43:48.448Z,24.62
2018-09-21T07:44:48.360Z,24.47
2018-09-21T07:45:48.367Z,24.58
2018-09-21T07:46:48.359Z,24.53
2018-09-21T07:47:48.362Z,24.50
2018-09-21T07:48:48.389Z,24.59
2018-09-21T07:49:48.388Z,24.53
2018-09-21T07:50:48.428Z,24.48
2018-09-21T07:51:48.440Z,24.47
2018-09-21T07:52:48.479Z,24.44
2018-09-21T07:53:48.449Z,24.48
2018-09-21T07:54:48.487Z,24.44
2018-09-21T07:55:48.553Z,24.47
2018-09-21T07:56:48.504Z,24.40
2018-09-21T07:57:48.487Z,24.44
2018-09-21T07:58:48.519Z,24.44
2018-09-21T07:59:48.521Z,24.46
2018-09-21T08:00:48.555Z,24.40
2018-09-21T08:01:48.574Z,24.48
2018-09-21T08:02:48.564Z,24.53
2018-09-21T08:03:48.572Z,24.46
2018-09-21T08:04:48.576Z,24.48
2018-09-21T08:05:48.606Z,24.47
2018-09-21T08:06:48.607Z,24.40
2018-09-21T08:07:48.674Z,24.50
2018-09-21T08:08:48.675Z,24.47
2018-09-21T08:09:48.636Z,24.38
2018-09-21T08:10:48.667Z,24.44
2018-09-21T08:11:48.680Z,24.47
2018-09-21T08:12:48.757Z,24.41
2018-09-21T08:13:48.728Z,24.44
2018-09-21T08:14:48.709Z,24.48
2018-09-21T08:15:48.716Z,24.53
2018-09-21T08:16:48.754Z,24.50
2018-09-21T08:17:48.784Z,24.41
2018-09-21T08:18:48.895Z,24.44
2018-09-21T08:19:48.782Z,24.47
2018-09-21T08:20:48.784Z,24.48
2018-09-21T08:21:48.857Z,24.46
2018-09-21T08:22:48.817Z,24.47
2018-09-21T08:23:48.817Z,24.47
2018-09-21T08:24:48.921Z,24.40
2018-09-21T08:25:48.836Z,24.53
2018-09-21T08:26:48.853Z,24.50
2018-09-21T08:27:48.934Z,24.47
2018-09-21T08:28:48.897Z,24.65
2018-09-21T08:29:48.953Z,24.62
2018-09-21T08:30:48.923Z,24.66
2018-09-21T08:31:48.923Z,24.62
2018-09-21T08:32:49.008Z,24.50
2018-09-21T08:33:49.335Z,24.59
2018-09-21T08:34:49.149Z,24.56
2018-09-21T08:35:49.014Z,24.53
2018-09-21T08:36:48.993Z,24.58
2018-09-21T08:37:49.006Z,24.62
2018-09-21T08:38:49.032Z,24.56
2018-09-21T08:39:49.037Z,24.65
2018-09-21T08:40:49.186Z,24.59
2018-09-21T08:41:49.115Z,24.61
2018-09-21T08:42:49.101Z,24.62
2018-09-21T08:43:49.109Z,24.62
2018-09-21T08:44:49.178Z,24.59
2018-09-21T08:45:49.126Z,24.55
2018-09-21T08:46:49.168Z,24.61
2018-09-21T08:47:49.141Z,24.63
2018-09-21T08:48:49.181Z,24.66
2018-09-21T08:49:49.147Z,24.68
2018-09-21T08:50:49.193Z,24.75
2018-09-21T08:51:49.250Z,24.74
2018-09-21T08:52:49.225Z,24.79
2018-09-21T08:53:49.234Z,24.78
2018-09-21T08:54:49.244Z,24.74
2018-09-21T08:55:49.288Z,24.78
2018-09-21T08:56:49.246Z,24.84
2018-09-21T08:57:49.283Z,24.82
2018-09-21T08:58:49.342Z,24.86
2018-09-21T08:59:49.292Z,24.94
2018-09-21T09:00:49.315Z,24.82
2018-09-21T09:01:49.312Z,24.94
2018-09-21T09:02:50.122Z,24.82
2018-09-21T09:03:49.379Z,24.86
2018-09-21T09:04:49.406Z,24.82
2018-09-21T09:05:49.402Z,25.03
2018-09-21T09:06:49.387Z,25.03
2018-09-21T09:07:49.527Z,25.01
2018-09-21T09:08:49.403Z,24.94
2018-09-21T09:09:49.652Z,24.99
2018-09-21T09:10:49.483Z,24.97
2018-09-21T09:11:49.773Z,24.97
2018-09-21T09:12:49.467Z,24.94
2018-09-21T09:13:49.522Z,24.99
2018-09-21T09:14:49.906Z,25.03
2018-09-21T09:15:49.519Z,25.01
2018-09-21T09:16:49.529Z,25.04
2018-09-21T09:17:49.720Z,25.09
2018-09-21T09:18:49.612Z,25.12
2018-09-21T09:19:49.556Z,25.09
2018-09-21T09:20:49.774Z,25.07
2018-09-21T09:21:49.611Z,25.09
2018-09-21T09:22:49.649Z,25.16
2018-09-21T09:23:49.648Z,25.12
2018-09-21T09:24:49.779Z,25.15
2018-09-21T09:25:49.863Z,25.15
2018-09-21T09:26:49.833Z,25.18
2018-09-21T09:27:49.770Z,25.16
2018-09-21T09:28:49.700Z,25.21
2018-09-21T09:29:49.763Z,25.16
2018-09-21T09:30:49.714Z,25.24
2018-09-21T09:31:49.726Z,25.22
2018-09-21T09:32:49.775Z,25.22
2018-09-21T09:33:49.861Z,25.26
2018-09-21T09:34:50.227Z,25.22
2018-09-21T09:35:55.858Z,25.25
2018-09-21T09:36:49.992Z,25.24
2018-09-21T09:37:49.848Z,25.25
2018-09-21T09:38:49.815Z,25.31
2018-09-21T09:39:49.882Z,25.31
2018-09-21T09:40:49.844Z,25.33
2018-09-21T09:41:49.951Z,25.39
2018-09-21T09:42:49.927Z,25.31
2018-09-21T09:43:49.875Z,25.37
2018-09-21T09:44:49.903Z,25.39
2018-09-21T09:45:49.907Z,25.39
2018-09-21T09:46:50.256Z,25.41
2018-09-21T09:47:50.045Z,25.40
2018-09-21T09:48:49.950Z,25.44
2018-09-21T09:49:50.031Z,25.37
2018-09-21T09:50:50.005Z,25.51
2018-09-21T09:51:49.976Z,25.52
2018-09-21T09:52:50.001Z,25.49
2018-09-21T09:53:50.051Z,25.51
2018-09-21T09:54:50.050Z,25.55
2018-09-21T09:55:50.152Z,25.54
2018-09-21T09:56:50.051Z,25.54
2018-09-21T09:57:50.060Z,25.55
2018-09-21T09:58:50.107Z,25.59
2018-09-21T09:59:50.182Z,25.67
2018-09-21T10:00:50.158Z,25.68
2018-09-21T10:01:50.137Z,25.71
2018-09-21T10:02:50.237Z,25.77
2018-09-21T10:03:50.246Z,25.81
2018-09-21T10:04:50.194Z,25.85
2018-09-21T10:05:50.722Z,25.81
2018-09-21T10:06:50.247Z,25.89
2018-09-21T10:07:50.223Z,25.98
2018-09-21T10:08:50.222Z,25.92
2018-09-21T10:09:50.261Z,25.99
2018-09-21T10:10:50.238Z,25.98
2018-09-21T10:11:50.266Z,25.98
2018-09-21T10:12:50.294Z,25.99
2018-09-21T10:13:50.451Z,25.96
2018-09-21T10:14:50.361Z,26.07
2018-09-21T10:15:50.371Z,26.08
2018-09-21T10:16:50.367Z,26.06
2018-09-21T10:17:50.384Z,26.13
2018-09-21T10:18:50.340Z,26.11
2018-09-21T10:19:50.404Z,26.27
2018-09-21T10:20:50.479Z,26.24
2018-09-21T10:21:50.507Z,26.31
2018-09-21T10:22:50.427Z,26.36
2018-09-21T10:23:50.430Z,26.34
2018-09-21T10:24:50.473Z,26.42
2018-09-21T10:25:50.497Z,26.45
2018-09-21T10:26:50.564Z,26.44
2018-09-21T10:27:50.791Z,26.42
2018-09-21T10:28:57.531Z,26.56
2018-09-21T10:29:50.688Z,26.46
2018-09-21T10:30:50.585Z,26.59
2018-09-21T10:31:50.586Z,26.63
2018-09-21T10:32:50.549Z,26.66
2018-09-21T10:33:50.714Z,26.64
2018-09-21T10:34:50.603Z,26.68
2018-09-21T10:35:50.610Z,26.70
2018-09-21T10:36:50.630Z,26.68
2018-09-21T10:37:50.623Z,26.74
2018-09-21T10:38:50.767Z,26.73
2018-09-21T10:39:50.680Z,26.74
2018-09-21T10:40:50.760Z,26.83
2018-09-21T10:41:50.705Z,26.93
2018-09-21T10:42:50.842Z,26.85
2018-09-21T10:43:50.753Z,26.96
2018-09-21T10:44:50.757Z,27.01
2018-09-21T10:45:50.755Z,26.93
2018-09-21T10:46:50.804Z,27.00
2018-09-21T10:47:50.827Z,27.08
2018-09-21T10:48:50.782Z,27.07
2018-09-21T10:49:50.879Z,27.04
2018-09-21T10:50:50.874Z,27.11
2018-09-21T10:51:50.978Z,27.10
2018-09-21T10:52:50.914Z,27.11
2018-09-21T10:53:50.932Z,27.16
2018-09-21T10:54:50.894Z,27.22
2018-09-21T10:55:50.951Z,27.16
2018-09-21T10:56:50.923Z,27.28
2018-09-21T10:57:50.932Z,27.30
2018-09-21T10:58:50.930Z,27.23
2018-09-21T10:59:51.011Z,27.23
2018-09-21T11:00:50.981Z,27.28
2018-09-21T11:01:50.994Z,27.41
2018-09-21T11:02:51.045Z,27.28
2018-09-21T11:03:51.110Z,27.23
2018-09-21T11:04:51.103Z,27.33
2018-09-21T11:05:51.063Z,27.29
2018-09-21T11:06:51.102Z,27.37
2018-09-21T11:07:51.134Z,27.38
2018-09-21T11:08:51.100Z,27.41
2018-09-21T11:09:51.095Z,27.44
2018-09-21T11:10:51.193Z,27.50
2018-09-21T11:11:51.152Z,27.50
2018-09-21T11:12:51.247Z,27.48
2018-09-21T11:13:51.167Z,27.50
2018-09-21T11:14:51.195Z,27.57
2018-09-21T11:15:51.201Z,27.60
2018-09-21T11:16:51.219Z,27.60
2018-09-21T11:17:51.280Z,27.64
2018-09-21T11:18:51.287Z,27.58
2018-09-21T11:19:51.261Z,27.57
2018-09-21T11:20:51.303Z,27.57
2018-09-21T11:21:51.316Z,27.55
2018-09-21T11:22:51.385Z,27.57
2018-09-21T11:23:51.319Z,27.66
2018-09-21T11:24:51.347Z,27.72
2018-09-21T11:25:51.381Z,27.72
2018-09-21T11:26:51.387Z,27.68
2018-09-21T11:27:51.383Z,27.82
2018-09-21T11:28:51.413Z,27.79
2018-09-21T11:29:51.412Z,27.79
2018-09-21T11:30:51.453Z,27.91
2018-09-21T11:31:51.516Z,27.88
2018-09-21T11:32:51.466Z,27.82
2018-09-21T11:33:51.466Z,27.86
2018-09-21T11:34:51.513Z,27.85
2018-09-21T11:35:51.496Z,27.86
2018-09-21T11:36:51.570Z,27.88
2018-09-21T11:37:51.528Z,27.91
2018-09-21T11:38:51.718Z,27.86
2018-09-21T11:39:51.740Z,27.88
2018-09-21T11:40:51.605Z,27.88
2018-09-21T11:41:51.632Z,27.90
2018-09-21T11:42:51.772Z,27.97
2018-09-21T11:43:51.641Z,27.95
2018-09-21T11:44:51.633Z,28.04
2018-09-21T11:45:51.689Z,28.09
2018-09-21T11:46:51.737Z,28.10
2018-09-21T11:47:51.767Z,28.13
2018-09-21T11:48:51.715Z,28.18
2018-09-21T11:49:51.771Z,28.20
2018-09-21T11:50:51.894Z,28.25
2018-09-21T11:51:51.913Z,28.28
2018-09-21T11:52:51.791Z,28.33
2018-09-21T11:53:51.846Z,28.41
2018-09-21T11:54:51.792Z,28.43
2018-09-21T11:55:51.809Z,28.50
2018-09-21T11:56:51.998Z,28.47
2018-09-21T11:57:51.886Z,28.67
2018-09-21T11:58:51.878Z,28.59
2018-09-21T11:59:51.864Z,28.57
2018-09-21T12:00:51.937Z,28.67
2018-09-21T12:01:51.989Z,28.60
2018-09-21T12:02:51.965Z,28.56
2018-09-21T12:03:52.033Z,28.72
2018-09-21T12:04:52.136Z,28.62
2018-09-21T12:05:52.029Z,28.67
2018-09-21T12:06:52.026Z,28.70
2018-09-21T12:07:51.987Z,28.71
2018-09-21T12:08:52.073Z,28.57
2018-09-21T12:09:52.048Z,28.64
2018-09-21T12:10:52.163Z,28.70
2018-09-21T12:11:52.061Z,28.70
2018-09-21T12:12:52.090Z,28.70
2018-09-21T12:13:52.122Z,28.77
2018-09-21T12:14:52.123Z,28.74
2018-09-21T12:15:54.210Z,28.74
2018-09-21T12:16:52.196Z,28.56
2018-09-21T12:17:52.220Z,28.55
2018-09-21T12:18:52.178Z,28.59
2018-09-21T12:19:52.263Z,28.59
2018-09-21T12:20:52.237Z,28.55
2018-09-21T12:21:52.239Z,28.59
2018-09-21T12:22:52.330Z,28.38
2018-09-21T12:23:52.311Z,28.46
2018-09-21T12:24:52.283Z,28.40
2018-09-21T12:25:52.296Z,28.53
2018-09-21T12:26:52.362Z,28.37
2018-09-21T12:27:52.317Z,28.45
2018-09-21T12:28:52.430Z,28.45
2018-09-21T12:29:52.347Z,28.46
2018-09-21T12:30:52.389Z,28.50
2018-09-21T12:31:52.409Z,28.43
2018-09-21T12:32:52.394Z,28.37
2018-09-21T12:33:52.405Z,28.46
2018-09-21T12:34:52.450Z,28.50
2018-09-21T12:35:52.460Z,28.55
2018-09-21T12:36:52.487Z,28.59
2018-09-21T12:37:52.513Z,28.64
2018-09-21T12:38:52.498Z,28.59
2018-09-21T12:39:52.513Z,28.59
2018-09-21T12:40:52.634Z,28.60
2018-09-21T12:41:52.572Z,28.62
2018-09-21T12:42:52.597Z,28.70
2018-09-21T12:43:52.692Z,28.70
2018-09-21T12:44:52.586Z,28.71
2018-09-21T12:45:52.699Z,28.71
2018-09-21T12:46:52.688Z,28.72
2018-09-21T12:47:52.650Z,28.72
2018-09-21T12:48:53.291Z,28.74
2018-09-21T12:49:52.841Z,28.64
2018-09-21T12:50:52.739Z,28.80
2018-09-21T12:51:52.763Z,28.72
2018-09-21T12:52:52.776Z,28.68